Time;durP1;ratioP1;P1;durP2;ratioP2;P2;SDS_P1;SDS_P2;PMS_P1;PMS_P2;Temp;Humidity;BMP_temperature;BMP_pressure;BME280_temperature;BME280_humidity;BME280_pressure;Samples;Min_cycle;Max_cycle;Signal;HPM_P1;HPM_P2
2021/03/26 00:03:41;;;;;;;34.08;19.65;;;;;;;3.29;76.62;97160.38;1815042;78;23332;-78
2021/03/26 00:06:16;;;;;;;51.23;32.58;;;;;;;3.37;76.57;97163.20;1785205;80;21537;-78
2021/03/26 00:08:45;;;;;;;36.38;21.93;;;;;;;3.41;76.27;97173.05;1780465;79;21245;-80
2021/03/26 00:11:14;;;;;;;46.18;27.67;;;;;;;3.40;76.24;97180.63;1778932;80;21140;-80
2021/03/26 00:13:42;;;;;;;39.75;24.37;;;;;;;3.37;76.24;97176.31;1773684;80;21156;-80
2021/03/26 00:16:11;;;;;;;48.68;29.63;;;;;;;3.36;76.20;97174.70;1776721;80;21532;-79
2021/03/26 00:18:39;;;;;;;52.85;30.27;;;;;;;3.38;76.10;97174.80;1787488;79;21136;-79
2021/03/26 00:21:07;;;;;;;58.25;33.73;;;;;;;3.33;76.06;97175.95;1792641;79;21135;-79
2021/03/26 00:23:35;;;;;;;51.58;31.70;;;;;;;3.29;76.15;97181.34;1785962;79;21107;-79
2021/03/26 00:26:04;;;;;;;49.18;30.55;;;;;;;3.22;76.07;97184.02;1776801;80;21152;-79
2021/03/26 00:28:31;;;;;;;50.33;31.05;;;;;;;3.15;76.14;97175.44;1765581;80;21141;-79
2021/03/26 00:30:58;;;;;;;49.38;28.23;;;;;;;3.19;76.42;97179.72;1774104;80;21139;-79
2021/03/26 00:33:26;;;;;;;48.85;27.52;;;;;;;3.18;76.36;97180.23;1780782;80;21107;-79
2021/03/26 00:35:54;;;;;;;49.18;28.45;;;;;;;3.20;76.53;97173.47;1768605;79;21111;-80
2021/03/26 00:38:24;;;;;;;50.15;30.00;;;;;;;3.23;76.47;97174.33;1780926;80;21135;-79
2021/03/26 00:40:53;;;;;;;56.88;31.17;;;;;;;3.33;76.42;97172.02;1785964;79;21115;-79
2021/03/26 00:43:21;;;;;;;47.65;28.85;;;;;;;3.37;76.15;97167.94;1770929;80;21142;-79
2021/03/26 00:45:50;;;;;;;56.28;33.83;;;;;;;3.33;76.14;97175.95;1765593;80;21108;-79
2021/03/26 00:48:20;;;;;;;53.60;31.15;;;;;;;3.28;76.03;97177.12;1791471;79;21100;-79
2021/03/26 00:50:52;;;;;;;56.77;32.98;;;;;;;3.18;75.93;97175.50;1771245;79;21131;-79
2021/03/26 00:53:24;;;;;;;52.10;30.95;;;;;;;3.11;75.98;97173.47;1785024;79;21503;-79
2021/03/26 00:55:53;;;;;;;50.70;32.55;;;;;;;3.08;76.09;97176.50;1790167;78;21076;-79
2021/03/26 00:58:21;;;;;;;56.77;34.15;;;;;;;3.08;76.26;97173.37;1777714;80;21176;-79
2021/03/26 01:00:49;;;;;;;57.37;33.97;;;;;;;3.06;76.19;97168.06;1795133;79;21199;-78
2021/03/26 01:03:19;;;;;;;57.88;35.45;;;;;;;3.04;76.15;97176.66;1781356;80;21459;-78
2021/03/26 01:05:53;;;;;;;50.70;33.23;;;;;;;2.99;76.27;97176.00;1771979;80;21173;-78
2021/03/26 01:08:22;;;;;;;58.05;34.92;;;;;;;2.94;76.35;97171.39;1775724;79;21365;-78
2021/03/26 01:10:54;;;;;;;55.08;33.38;;;;;;;2.93;76.38;97171.61;1779811;79;21088;-78
2021/03/26 01:13:22;;;;;;;58.75;34.78;;;;;;;2.89;76.43;97169.13;1768552;80;21137;-78
2021/03/26 01:15:50;;;;;;;52.62;32.23;;;;;;;2.88;76.64;97170.95;1782463;79;21165;-78
2021/03/26 01:18:37;;;;;;;55.05;32.60;;;;;;;2.86;76.58;97171.68;1775032;79;21150;-78
2021/03/26 01:21:06;;;;;;;52.13;31.33;;;;;;;2.85;76.65;97171.39;1760337;80;21150;-80
2021/03/26 01:23:33;;;;;;;57.40;35.13;;;;;;;2.83;76.87;97169.50;1766079;80;21119;-80
2021/03/26 01:26:01;;;;;;;57.88;33.15;;;;;;;2.83;76.94;97161.64;1775117;80;21116;-80
2021/03/26 01:28:30;;;;;;;46.20;27.80;;;;;;;2.79;76.95;97162.27;1774627;79;21536;-80
2021/03/26 01:30:58;;;;;;;59.33;36.35;;;;;;;2.73;77.30;97164.45;1770168;79;21132;-80
2021/03/26 01:33:27;;;;;;;58.95;35.13;;;;;;;2.70;77.47;97163.06;1794969;79;21133;-80
2021/03/26 01:35:57;;;;;;;56.60;33.10;;;;;;;2.67;77.31;97165.61;1782610;80;21115;-80
2021/03/26 01:38:25;;;;;;;59.00;34.00;;;;;;;2.64;77.36;97163.91;1771699;80;21139;-80
2021/03/26 01:40:59;;;;;;;59.77;33.35;;;;;;;2.59;77.37;97163.24;1764523;80;21499;-80
2021/03/26 01:43:32;;;;;;;58.10;35.38;;;;;;;2.62;77.77;97160.70;1774130;80;21112;-80
2021/03/26 01:46:01;;;;;;;55.70;31.55;;;;;;;2.65;77.68;97161.06;1765627;80;21141;-79
2021/03/26 01:48:40;;;;;;;63.20;35.80;;;;;;;2.65;77.94;97151.11;1764170;80;21116;-80
2021/03/26 01:51:12;;;;;;;62.93;35.92;;;;;;;2.72;78.33;97160.23;1782149;79;21159;-79
2021/03/26 01:53:40;;;;;;;50.60;30.43;;;;;;;2.75;78.22;97161.90;1783955;79;21156;-79
2021/03/26 01:56:08;;;;;;;63.35;35.52;;;;;;;2.80;78.58;97162.05;1759196;79;21157;-79
2021/03/26 01:58:37;;;;;;;56.58;31.57;;;;;;;2.89;78.65;97161.28;1787757;80;21137;-79
2021/03/26 02:01:15;;;;;;;64.47;35.52;;;;;;;2.92;78.70;97162.95;1778476;79;21155;-79
2021/03/26 02:03:49;;;;;;;55.05;30.92;;;;;;;2.94;78.60;97161.42;1773334;80;21520;-79
2021/03/26 02:06:25;;;;;;;44.35;27.27;;;;;;;2.93;78.80;97155.89;1790416;80;21471;-79
2021/03/26 02:08:56;;;;;;;41.73;23.55;;;;;;;2.94;78.83;97149.64;1776220;80;21483;-79
2021/03/26 02:11:28;;;;;;;56.53;33.10;;;;;;;2.94;78.83;97154.36;1777184;80;21521;-79
2021/03/26 02:13:58;;;;;;;59.85;35.43;;;;;;;2.90;78.93;97153.20;1781094;79;21484;-79
2021/03/26 02:16:25;;;;;;;41.68;24.57;;;;;;;2.87;78.96;97157.57;1793246;79;21102;-79
2021/03/26 02:18:52;;;;;;;62.60;35.03;;;;;;;2.86;79.02;97161.20;1761258;80;21123;-79
2021/03/26 02:21:30;;;;;;;53.52;31.75;;;;;;;2.84;78.84;97165.06;1780883;80;21175;-79
2021/03/26 02:24:07;;;;;;;59.25;34.23;;;;;;;2.78;78.82;97161.47;1775823;79;21103;-79
2021/03/26 02:29:26;;;;;;;44.42;25.60;;;;;;;2.76;79.02;97148.30;1880393;76;22978;-78
2021/03/26 02:32:05;;;;;;;57.50;33.90;;;;;;;2.72;79.02;97158.92;1863356;76;21103;-78
2021/03/26 02:34:33;;;;;;;58.17;34.05;;;;;;;2.74;78.83;97156.38;1829331;77;21595;-78
2021/03/26 02:37:07;;;;;;;52.33;29.67;;;;;;;2.68;78.58;97155.43;1840165;77;21098;-78
2021/03/26 02:39:45;;;;;;;51.70;28.23;;;;;;;2.61;78.85;97155.97;1810528;77;21083;-79
2021/03/26 02:42:30;;;;;;;47.40;28.77;;;;;;;2.63;79.12;97153.14;1834829;77;21106;-79
2021/03/26 02:45:08;;;;;;;57.15;33.28;;;;;;;2.68;79.07;97161.17;1884179;76;21088;-79
2021/03/26 02:47:41;;;;;;;61.10;33.73;;;;;;;2.72;78.94;97161.03;1840985;76;21536;-79
2021/03/26 02:50:13;;;;;;;47.78;29.72;;;;;;;2.71;78.75;97169.90;1837037;77;21339;-79
2021/03/26 02:53:00;;;;;;;60.20;35.13;;;;;;;2.71;78.83;97172.52;1804827;78;21080;-79
2021/03/26 02:55:44;;;;;;;40.12;22.17;;;;;;;2.76;78.72;97178.41;1766922;81;21123;-80
2021/03/26 02:58:19;;;;;;;51.83;30.88;;;;;;;2.75;78.73;97176.81;1766425;79;21092;-79
2021/03/26 03:00:54;;;;;;;53.02;32.83;;;;;;;2.72;78.60;97187.72;1778795;78;21295;-79
2021/03/26 03:03:28;;;;;;;61.08;35.08;;;;;;;2.64;78.62;97185.64;1785082;79;21485;-80
2021/03/26 03:06:06;;;;;;;57.53;35.13;;;;;;;2.64;78.76;97190.08;1775706;79;21080;-79
2021/03/26 03:08:37;;;;;;;57.58;32.78;;;;;;;2.67;78.78;97187.86;1786770;80;21464;-79
2021/03/26 03:11:21;;;;;;;51.73;30.90;;;;;;;2.68;78.86;97191.27;1789932;79;21519;-79
2021/03/26 03:14:12;;;;;;;59.45;33.65;;;;;;;2.70;78.78;97189.75;1781597;80;21166;-79
2021/03/26 03:17:11;;;;;;;60.08;34.88;;;;;;;2.71;78.83;97190.04;1752658;80;21112;-79
2021/03/26 03:19:59;;;;;;;57.03;32.65;;;;;;;2.76;78.88;97194.12;1763080;80;21696;-80
2021/03/26 03:22:40;;;;;;;63.98;34.88;;;;;;;2.70;78.58;97198.41;1774793;80;21099;-80
2021/03/26 03:25:16;;;;;;;57.88;34.35;;;;;;;2.65;78.74;97198.22;1790204;79;21103;-80
2021/03/26 03:28:11;;;;;;;57.88;33.25;;;;;;;2.59;78.75;97199.89;1777237;79;21111;-80
2021/03/26 03:31:12;;;;;;;55.63;33.83;;;;;;;2.56;78.89;97190.36;1775875;78;21145;-80
2021/03/26 03:33:51;;;;;;;61.58;33.83;;;;;;;2.55;78.97;97193.99;1783325;79;21129;-80
2021/03/26 03:36:23;;;;;;;48.75;30.43;;;;;;;2.49;78.75;97195.63;1799265;79;21152;-80
2021/03/26 03:39:16;;;;;;;60.67;36.60;;;;;;;2.43;78.69;97196.99;1799010;79;21534;-80
2021/03/26 03:41:54;;;;;;;54.75;31.87;;;;;;;2.39;78.83;97201.82;1782539;79;21106;-80
2021/03/26 03:44:32;;;;;;;56.58;33.75;;;;;;;2.32;78.70;97197.95;1800336;77;21094;-79
2021/03/26 03:47:10;;;;;;;54.93;30.12;;;;;;;2.24;78.89;97202.11;1804119;79;21447;-79
2021/03/26 03:50:10;;;;;;;56.10;28.90;;;;;;;2.27;79.32;97200.41;1789037;79;21110;-79
2021/03/26 03:52:52;;;;;;;52.05;24.43;;;;;;;2.38;79.61;97203.64;1797701;79;21150;-79
2021/03/26 03:55:42;;;;;;;54.88;31.30;;;;;;;2.59;79.56;97202.50;1799281;78;21210;-79
2021/03/26 03:58:30;;;;;;;51.28;30.60;;;;;;;2.68;79.41;97203.05;1772330;79;21117;-79
2021/03/26 04:01:14;;;;;;;54.42;31.57;;;;;;;2.78;79.42;97195.50;1793875;79;21631;-79
2021/03/26 04:03:49;;;;;;;58.98;32.93;;;;;;;2.87;79.26;97202.59;1776435;80;21099;-79
2021/03/26 04:06:58;;;;;;;63.68;36.17;;;;;;;2.88;79.22;97204.19;1777304;79;21115;-79
2021/03/26 04:09:30;;;;;;;64.00;32.40;;;;;;;2.86;79.09;97200.48;1779431;80;21469;-80
2021/03/26 04:12:12;;;;;;;62.62;35.45;;;;;;;2.89;79.38;97209.72;1784689;80;21265;-80
2021/03/26 04:14:53;;;;;;;51.18;28.02;;;;;;;2.86;79.13;97206.23;1780304;80;21260;-80
2021/03/26 04:17:49;;;;;;;59.00;33.05;;;;;;;2.83;79.20;97203.53;1769586;80;21128;-80
2021/03/26 04:20:30;;;;;;;69.82;39.80;;;;;;;2.88;79.25;97204.99;1766906;79;21123;-80
2021/03/26 04:23:14;;;;;;;70.22;40.23;;;;;;;2.85;79.19;97203.31;1764570;80;21146;-80
2021/03/26 04:25:46;;;;;;;63.92;37.10;;;;;;;2.75;79.32;97199.86;1761030;80;21111;-80
2021/03/26 04:28:25;;;;;;;65.92;38.33;;;;;;;2.66;79.45;97197.20;1765493;80;21107;-79
2021/03/26 04:31:00;;;;;;;60.00;35.75;;;;;;;2.70;79.61;97198.41;1762413;80;21108;-79
2021/03/26 04:33:28;;;;;;;58.58;33.02;;;;;;;2.69;79.66;97205.97;1763817;80;21107;-79
2021/03/26 04:35:59;;;;;;;45.73;26.00;;;;;;;2.66;79.82;97202.44;1778095;79;21092;-79
2021/03/26 04:38:37;;;;;;;47.35;29.98;;;;;;;2.68;80.10;97203.05;1764641;80;21463;-79
2021/03/26 04:41:16;;;;;;;57.15;32.42;;;;;;;2.73;80.06;97202.41;1759502;80;21139;-80
2021/03/26 04:44:10;;;;;;;61.00;34.18;;;;;;;2.78;79.90;97198.13;1788346;79;22583;-78
2021/03/26 04:46:48;;;;;;;62.03;35.17;;;;;;;2.73;79.84;97203.72;1736703;81;21100;-80
2021/03/26 04:49:37;;;;;;;48.75;24.98;;;;;;;2.77;79.98;97207.50;1750146;80;21098;-79
2021/03/26 04:52:12;;;;;;;54.93;31.48;;;;;;;2.80;79.96;97198.70;1730015;81;21147;-80
2021/03/26 04:55:18;;;;;;;40.83;24.70;;;;;;;2.87;79.82;97208.62;1728258;83;21100;-80
2021/03/26 04:58:02;;;;;;;35.48;19.60;;;;;;;2.92;79.52;97202.23;1725900;81;21133;-80
2021/03/26 05:00:51;;;;;;;37.05;21.02;;;;;;;2.93;79.11;97212.20;1732273;81;21125;-80
2021/03/26 05:03:30;;;;;;;45.70;26.27;;;;;;;2.95;78.87;97210.96;1726003;81;21146;-78
2021/03/26 05:06:11;;;;;;;52.33;29.80;;;;;;;3.01;78.76;97211.94;1666872;84;21151;-79
2021/03/26 05:08:44;;;;;;;58.17;34.73;;;;;;;3.15;78.54;97207.38;1670335;85;21179;-79
2021/03/26 05:11:15;;;;;;;59.48;35.52;;;;;;;3.30;78.14;97206.52;1690424;84;21146;-79
2021/03/26 05:13:52;;;;;;;58.42;34.25;;;;;;;3.51;77.98;97211.84;1742889;81;21129;-80
2021/03/26 05:16:34;;;;;;;54.03;33.88;;;;;;;3.74;77.37;97217.75;1695217;84;21182;-80
2021/03/26 05:19:12;;;;;;;55.08;33.28;;;;;;;3.94;76.97;97218.33;1675992;84;21530;-80
2021/03/26 05:21:54;;;;;;;50.38;29.12;;;;;;;4.11;76.10;97214.07;1681769;84;21171;-80
2021/03/26 05:24:26;;;;;;;48.17;27.25;;;;;;;4.24;75.82;97222.28;1683630;84;21491;-79
2021/03/26 05:26:54;;;;;;;53.17;31.82;;;;;;;4.31;75.21;97216.92;1677532;84;21554;-80
2021/03/26 05:29:23;;;;;;;57.45;34.18;;;;;;;4.34;74.91;97217.78;1683519;84;21181;-80
2021/03/26 05:32:10;;;;;;;57.70;35.43;;;;;;;4.48;74.88;97223.94;1736584;81;21151;-80
2021/03/26 05:34:58;;;;;;;45.88;28.20;;;;;;;4.70;74.33;97239.20;1732705;83;21141;-80
2021/03/26 05:37:48;;;;;;;54.18;32.00;;;;;;;4.90;73.58;97232.31;1735202;81;21126;-80
2021/03/26 05:40:41;;;;;;;53.20;31.57;;;;;;;5.01;73.27;97230.22;1742802;81;21147;-80
2021/03/26 05:43:46;;;;;;;60.08;37.15;;;;;;;5.14;72.47;97232.63;1747407;81;21127;-79
2021/03/26 05:46:43;;;;;;;51.70;32.63;;;;;;;5.24;72.35;97236.81;1672687;86;21549;-80
2021/03/26 05:49:30;;;;;;;48.23;29.00;;;;;;;5.51;71.43;97224.52;1672763;86;21120;-80
2021/03/26 05:52:15;;;;;;;40.00;25.15;;;;;;;5.53;70.51;97234.29;1672660;86;21197;-80
2021/03/26 05:55:16;;;;;;;42.80;26.68;;;;;;;5.56;70.02;97229.36;1691930;84;21151;-80
2021/03/26 05:58:15;;;;;;;45.55;26.40;;;;;;;5.71;69.92;97236.77;1689946;84;21468;-80
2021/03/26 06:01:19;;;;;;;42.73;27.80;;;;;;;6.03;69.75;97242.44;1693382;84;21131;-79
2021/03/26 06:04:10;;;;;;;52.13;32.42;;;;;;;6.29;68.84;97235.03;1700143;84;21507;-80
2021/03/26 06:07:07;;;;;;;50.30;30.65;;;;;;;6.47;67.50;97244.86;1693807;84;21112;-80
2021/03/26 06:09:49;;;;;;;42.75;25.27;;;;;;;6.83;67.15;97242.33;1691651;84;21162;-78
2021/03/26 06:12:55;;;;;;;51.15;31.73;;;;;;;7.19;65.41;97233.69;1701811;84;21169;-80
2021/03/26 06:15:33;;;;;;;49.23;29.87;;;;;;;7.45;64.98;97236.95;1701872;84;21131;-80
2021/03/26 06:18:31;;;;;;;48.35;29.70;;;;;;;7.67;64.13;97229.08;1701855;84;21100;-80
2021/03/26 06:21:20;;;;;;;56.92;37.33;;;;;;;7.64;63.97;97241.97;1682435;84;21102;-80
2021/03/26 06:24:16;;;;;;;49.23;31.70;;;;;;;7.86;64.16;97244.09;1699858;84;21561;-80
2021/03/26 06:27:36;;;;;;;41.42;24.60;;;;;;;7.93;62.30;97228.88;1701178;84;21194;-80
2021/03/26 06:30:41;;;;;;;50.63;33.45;;;;;;;7.72;62.20;97238.38;1697755;84;21181;-80
2021/03/26 06:34:00;;;;;;;46.85;29.02;;;;;;;7.63;62.46;97245.66;1698960;84;21124;-80
2021/03/26 06:36:59;;;;;;;47.60;30.12;;;;;;;7.40;62.63;97240.05;1690970;84;21161;-80
2021/03/26 06:40:03;;;;;;;49.38;32.33;;;;;;;7.35;62.85;97260.56;1695195;84;21188;-79
2021/03/26 06:43:20;;;;;;;48.95;33.73;;;;;;;7.47;62.34;97260.47;1698501;84;21203;-80
2021/03/26 06:46:21;;;;;;;51.83;34.40;;;;;;;7.71;62.32;97263.69;1701883;84;21138;-80
2021/03/26 06:48:59;;;;;;;50.33;34.60;;;;;;;8.18;61.87;97263.25;1701980;84;21169;-78
2021/03/26 06:51:54;;;;;;;48.83;32.00;;;;;;;8.67;60.79;97269.88;1708854;84;21534;-80
2021/03/26 06:54:44;;;;;;;57.00;37.10;;;;;;;9.13;61.10;97269.75;1709938;84;21135;-80
2021/03/26 06:57:51;;;;;;;50.00;30.77;;;;;;;9.29;59.72;97274.14;1709660;84;21502;-80
2021/03/26 07:00:47;;;;;;;48.25;33.92;;;;;;;9.42;58.47;97264.95;1706499;84;21471;-81
2021/03/26 07:03:35;;;;;;;50.20;35.50;;;;;;;9.39;58.85;97272.87;1705527;84;21506;-80
2021/03/26 07:06:29;;;;;;;47.53;35.85;;;;;;;9.72;57.74;97270.98;1694746;84;21168;-80
2021/03/26 07:09:39;;;;;;;44.55;32.25;;;;;;;10.11;58.25;97271.42;1690087;84;21145;-80
2021/03/26 07:12:36;;;;;;;48.65;35.23;;;;;;;10.39;56.19;97271.03;1710007;84;21136;-81
2021/03/26 07:15:08;;;;;;;52.45;36.13;;;;;;;10.45;56.56;97270.54;1709839;84;21536;-80
2021/03/26 07:18:05;;;;;;;49.98;33.08;;;;;;;10.69;56.29;97270.31;1718575;83;21138;-80
2021/03/26 07:21:08;;;;;;;49.55;34.75;;;;;;;10.74;55.23;97272.73;1679767;85;21178;-80
2021/03/26 07:23:49;;;;;;;47.38;32.58;;;;;;;10.88;55.29;97269.84;1679962;85;21492;-80
2021/03/26 07:26:44;;;;;;;48.08;35.35;;;;;;;11.18;53.89;97275.16;1679462;85;21135;-80
2021/03/26 07:29:53;;;;;;;50.92;36.65;;;;;;;11.54;53.54;97270.64;1717947;81;21118;-80
2021/03/26 07:32:44;;;;;;;48.92;34.85;;;;;;;11.61;52.84;97270.35;1735412;81;21156;-81
2021/03/26 07:35:19;;;;;;;51.58;36.35;;;;;;;11.70;52.24;97283.89;1727360;81;21176;-80
2021/03/26 07:38:18;;;;;;;48.05;34.40;;;;;;;11.78;52.06;97278.81;1733011;81;21218;-80
2021/03/26 07:41:31;;;;;;;48.92;35.23;;;;;;;12.26;51.22;97285.89;1735545;83;21122;-80
2021/03/26 07:44:40;;;;;;;45.55;33.30;;;;;;;12.62;51.10;97280.39;1724408;83;21122;-80
2021/03/26 07:47:41;;;;;;;43.80;33.28;;;;;;;13.15;49.57;97276.06;1726936;81;21106;-80
2021/03/26 07:50:23;;;;;;;42.53;31.70;;;;;;;13.93;48.85;97268.44;1724131;81;21126;-80
2021/03/26 07:53:02;;;;;;;50.35;35.88;;;;;;;14.30;47.83;97277.09;1726138;83;21138;-80
2021/03/26 07:55:40;;;;;;;43.85;33.90;;;;;;;14.61;48.38;97282.86;1738967;81;21120;-80
2021/03/26 07:58:52;;;;;;;47.53;36.03;;;;;;;15.15;48.42;97281.56;1734463;83;21562;-80
2021/03/26 08:02:02;;;;;;;43.92;33.13;;;;;;;15.48;46.25;97285.58;1743193;81;21150;-81
2021/03/26 08:04:47;;;;;;;46.63;35.60;;;;;;;15.05;46.37;97288.38;1734684;83;21120;-81
2021/03/26 08:07:39;;;;;;;50.03;37.85;;;;;;;15.54;46.22;97293.77;1727498;83;21136;-80
2021/03/26 08:10:32;;;;;;;46.45;35.80;;;;;;;15.81;46.96;97293.08;1715899;83;21459;-81
2021/03/26 08:13:22;;;;;;;44.90;34.03;;;;;;;16.42;46.73;97286.00;1731524;81;21261;-79
2021/03/26 08:16:12;;;;;;;47.88;36.03;;;;;;;17.00;45.73;97287.99;1735795;81;21536;-80
2021/03/26 08:19:19;;;;;;;49.48;36.30;;;;;;;17.21;44.19;97293.69;1725670;81;21139;-81
2021/03/26 08:22:11;;;;;;;49.13;36.60;;;;;;;17.13;42.98;97293.86;1726296;81;21352;-80
2021/03/26 08:25:01;;;;;;;52.67;40.25;;;;;;;17.04;43.60;97296.24;1722976;83;21259;-80
2021/03/26 08:28:01;;;;;;;49.83;38.17;;;;;;;17.51;45.77;97301.55;1729052;83;21513;-80
2021/03/26 08:31:05;;;;;;;52.20;38.83;;;;;;;17.74;44.61;97305.83;1724623;83;21593;-80
2021/03/26 08:33:59;;;;;;;47.88;36.48;;;;;;;18.43;44.45;97305.86;1723267;81;21249;-80
2021/03/26 08:36:44;;;;;;;51.95;38.48;;;;;;;18.79;43.34;97302.43;1720575;81;21648;-81
2021/03/26 08:39:45;;;;;;;51.92;38.50;;;;;;;18.45;42.13;97303.69;1734485;83;21141;-81
2021/03/26 08:42:37;;;;;;;;;;;;;;;18.55;42.99;97306.06;1737039;83;21143;-80
2021/03/26 08:48:53;;;;;;;61.58;44.33;;;;;;;18.95;41.90;97287.43;1780302;79;22684;-80
2021/03/26 08:51:59;;;;;;;56.15;41.08;;;;;;;18.88;41.82;97291.70;1755011;80;21135;-80
2021/03/26 08:55:09;;;;;;;52.43;37.88;;;;;;;18.90;41.07;97292.17;1757802;80;21099;-80
2021/03/26 08:58:08;;;;;;;56.83;40.30;;;;;;;19.05;41.56;97296.30;1746785;81;21138;-80
2021/03/26 09:01:28;;;;;;;61.20;41.20;;;;;;;18.92;38.42;97298.02;1757740;81;21689;-80
2021/03/26 09:04:24;;;;;;;56.10;40.70;;;;;;;17.59;41.43;97302.69;1763798;81;21637;-80
2021/03/26 09:07:22;;;;;;;63.15;44.48;;;;;;;17.23;42.23;97303.55;1777557;80;21176;-80
2021/03/26 09:10:36;;;;;;;62.58;43.33;;;;;;;17.13;43.47;97297.08;1760141;81;21111;-79
2021/03/26 09:13:29;;;;;;;59.60;42.58;;;;;;;16.84;42.60;97305.50;1726878;81;21124;-80
2021/03/26 09:16:15;;;;;;;64.58;44.98;;;;;;;16.18;43.40;97305.47;1783107;80;21335;-80
2021/03/26 09:21:53;;;;;;;63.33;43.02;;;;;;;15.68;44.46;97302.10;1770138;79;22979;-80
2021/03/26 09:24:44;;;;;;;61.18;41.55;;;;;;;15.60;44.64;97307.31;1720636;83;21160;-80
2021/03/26 09:27:31;;;;;;;60.67;42.50;;;;;;;15.37;45.06;97313.02;1728847;83;21115;-80
2021/03/26 09:30:10;;;;;;;64.32;41.28;;;;;;;15.12;45.67;97305.64;1726611;83;21122;-80
2021/03/26 09:32:52;;;;;;;62.15;40.60;;;;;;;15.27;46.08;97312.63;1726813;83;21150;-80
2021/03/26 09:35:39;;;;;;;57.80;40.35;;;;;;;15.33;45.89;97314.12;1713264;81;21131;-80
2021/03/26 09:38:32;;;;;;;63.70;42.75;;;;;;;14.97;45.26;97311.75;1707519;83;21107;-81
2021/03/26 09:41:17;;;;;;;61.08;42.10;;;;;;;14.77;46.41;97306.92;1720613;83;21134;-80
2021/03/26 09:43:58;;;;;;;;;;;;;;;14.60;46.25;97309.30;1716502;83;21119;-81
2021/03/26 09:46:40;;;;;;;62.55;40.58;;;;;;;14.54;46.75;97308.58;1694644;84;20181;-80
2021/03/26 09:52:34;;;;;;;59.18;40.83;;;;;;;14.38;46.50;97310.36;1866128;76;22891;-80
2021/03/26 09:55:32;;;;;;;60.92;39.83;;;;;;;14.50;47.47;97305.44;1799005;79;21148;-81
2021/03/26 09:58:38;;;;;;;65.75;42.62;;;;;;;14.73;47.65;97307.25;1813628;79;21544;-81
2021/03/26 10:01:19;;;;;;;62.58;41.13;;;;;;;14.60;45.06;97305.30;1794741;79;21130;-81
2021/03/26 10:04:05;;;;;;;;;;;;;;;14.37;46.10;97305.56;1798520;79;21150;-81
2021/03/26 10:07:13;;;;;;;59.40;41.05;;;;;;;14.41;45.30;97301.23;1794873;79;20141;-82
2021/03/26 10:09:42;;;;;;;63.92;42.03;;;;;;;14.22;46.04;97300.41;1704686;83;21555;-81
2021/03/26 10:12:26;;;;;;;59.73;39.03;;;;;;;13.81;45.92;97296.84;1721444;82;21187;-81
2021/03/26 10:15:08;;;;;;;58.45;38.85;;;;;;;13.68;46.55;97306.82;1724814;82;21103;-81
2021/03/26 10:18:10;;;;;;;66.95;43.15;;;;;;;13.58;46.21;97308.23;1725291;82;21126;-81
2021/03/26 10:20:51;;;;;;;60.12;39.78;;;;;;;13.60;46.49;97299.42;1721695;81;21298;-82
2021/03/26 10:23:40;;;;;;;56.40;37.42;;;;;;;13.75;47.56;97294.48;1733592;81;21485;-83
2021/03/26 10:26:41;;;;;;;58.08;37.00;;;;;;;14.31;48.23;97293.89;1744975;81;21267;-82
2021/03/26 10:29:40;;;;;;;56.75;36.55;;;;;;;14.67;47.70;97285.73;1731412;81;21130;-80
2021/03/26 10:32:14;;;;;;;59.23;35.63;;;;;;;14.93;47.75;97284.84;1748661;81;21241;-82
2021/03/26 10:34:45;;;;;;;57.17;37.23;;;;;;;15.40;48.31;97283.05;1726181;82;21126;-82
2021/03/26 10:37:40;;;;;;;53.55;36.33;;;;;;;15.65;47.79;97281.31;1744178;81;21557;-82
2021/03/26 10:40:34;;;;;;;53.98;36.95;;;;;;;15.94;47.50;97277.05;1737546;81;21203;-82
2021/03/26 10:43:30;;;;;;;52.83;35.45;;;;;;;16.03;46.36;97274.45;1746564;81;21172;-82
2021/03/26 10:46:05;;;;;;;55.75;37.17;;;;;;;16.13;46.80;97273.48;1726333;81;21145;-82
2021/03/26 10:48:56;;;;;;;43.30;30.48;;;;;;;15.84;45.05;97272.42;1744764;81;21120;-82
2021/03/26 10:51:49;;;;;;;56.15;37.30;;;;;;;15.67;44.99;97270.33;1732257;81;21504;-81
2021/03/26 10:54:34;;;;;;;53.13;35.70;;;;;;;15.38;45.36;97273.98;1733712;81;21124;-82
2021/03/26 10:57:09;;;;;;;48.65;31.37;;;;;;;15.57;46.87;97270.47;1729295;81;21121;-82
2021/03/26 10:59:54;;;;;;;54.20;37.03;;;;;;;15.81;45.46;97269.02;1736453;81;21229;-83
2021/03/26 11:02:43;;;;;;;55.03;36.50;;;;;;;15.51;44.42;97268.44;1753788;81;21470;-82
2021/03/26 11:05:45;;;;;;;48.35;33.02;;;;;;;14.87;44.34;97263.83;1755548;81;21168;-82
2021/03/26 11:08:36;;;;;;;57.90;37.03;;;;;;;14.92;45.02;97265.91;1701085;81;21178;-82
2021/03/26 11:11:12;;;;;;;;;;;;;;;14.78;44.41;97261.04;1707395;81;21204;-81
2021/03/26 11:14:16;;;;;;;45.12;31.20;;;;;;;14.82;45.70;97260.16;1744064;81;20181;-81
2021/03/26 11:17:01;;;;;;;52.75;36.25;;;;;;;14.99;44.89;97252.17;1747645;81;21157;-81
2021/03/26 11:19:36;;;;;;;55.12;36.68;;;;;;;14.69;44.02;97251.54;1749234;81;21085;-82
2021/03/26 11:22:18;;;;;;;55.17;36.05;;;;;;;14.48;45.28;97250.22;1745469;81;21125;-81
2021/03/26 11:25:08;;;;;;;55.03;36.50;;;;;;;14.67;46.91;97249.70;1723899;81;21129;-81
2021/03/26 11:27:50;;;;;;;;;;;;;;;14.73;45.08;97247.20;1740013;81;21105;-81
2021/03/26 11:30:35;;;;;;;50.48;34.15;;;;;;;14.74;45.38;97248.79;1751740;81;20145;-81
2021/03/26 11:33:27;;;;;;;48.40;31.95;;;;;;;14.69;45.12;97243.53;1753662;81;21492;-81
2021/03/26 11:35:58;;;;;;;49.13;31.62;;;;;;;14.92;46.03;97246.39;1744918;81;21101;-80
2021/03/26 11:38:30;;;;;;;55.65;34.23;;;;;;;15.20;46.34;97248.12;1737344;81;21129;-82
2021/03/26 11:41:14;;;;;;;58.60;39.25;;;;;;;15.27;45.62;97251.19;1734264;81;21517;-83
2021/03/26 11:43:47;;;;;;;60.60;38.85;;;;;;;15.10;44.32;97241.05;1741887;81;21528;-81
2021/03/26 11:46:22;;;;;;;57.93;36.95;;;;;;;14.67;45.89;97245.70;1755899;81;21132;-81
2021/03/26 11:49:01;;;;;;;59.77;39.10;;;;;;;14.68;47.18;97241.95;1756903;81;21161;-82
2021/03/26 11:51:43;;;;;;;52.35;34.53;;;;;;;14.76;46.53;97243.95;1754094;81;21131;-81
2021/03/26 11:54:36;;;;;;;52.40;36.73;;;;;;;14.88;45.87;97245.39;1751265;81;21122;-82
2021/03/26 11:57:15;;;;;;;59.63;37.98;;;;;;;14.65;45.23;97239.07;1723621;82;21494;-82
2021/03/26 12:00:19;;;;;;;54.98;35.13;;;;;;;14.39;45.92;97243.38;1733600;82;21165;-82
2021/03/26 12:03:19;;;;;;;52.25;34.18;;;;;;;14.36;46.18;97239.96;1679896;84;21186;-82
2021/03/26 12:06:09;;;;;;;55.92;35.63;;;;;;;14.68;47.48;97231.81;1745868;82;21151;-82
2021/03/26 12:09:05;;;;;;;47.03;32.30;;;;;;;14.83;47.38;97232.92;1745360;82;21497;-82
2021/03/26 12:11:56;;;;;;;49.38;31.82;;;;;;;14.96;46.59;97234.86;1734044;81;21133;-81
2021/03/26 12:14:28;;;;;;;50.65;33.90;;;;;;;15.12;46.32;97233.53;1709108;81;21120;-81
2021/03/26 12:17:37;;;;;;;52.43;35.03;;;;;;;15.02;46.51;97224.89;1754475;81;21093;-81
2021/03/26 12:20:31;;;;;;;57.20;36.08;;;;;;;15.16;47.74;97224.39;1735306;81;21112;-81
2021/03/26 12:23:10;;;;;;;55.12;35.03;;;;;;;15.29;47.22;97222.84;1717930;81;21151;-81
2021/03/26 12:25:55;;;;;;;57.38;36.08;;;;;;;15.25;47.14;97222.64;1742461;81;21495;-82
2021/03/26 12:28:56;;;;;;;45.08;30.37;;;;;;;15.16;46.88;97219.05;1745051;81;21142;-82
2021/03/26 12:31:43;;;;;;;;;;;;;;;14.96;45.51;97216.72;1758016;81;21486;-81
2021/03/26 12:34:25;;;;;;;51.40;34.20;;;;;;;14.36;44.78;97220.50;1724989;82;20238;-81
2021/03/26 12:37:06;;;;;;;55.23;34.67;;;;;;;14.13;46.16;97214.91;1710549;83;21183;-81
2021/03/26 12:39:38;;;;;;;50.92;33.10;;;;;;;14.37;47.07;97207.41;1712237;83;21190;-81
2021/03/26 12:42:26;;;;;;;54.83;31.87;;;;;;;14.80;47.24;97205.48;1724524;83;21197;-82
2021/03/26 12:45:04;;;;;;;51.20;34.50;;;;;;;15.02;47.00;97206.19;1730286;81;21611;-81
2021/03/26 12:47:50;;;;;;;49.98;32.95;;;;;;;15.10;47.04;97201.53;1723519;82;21145;-81
2021/03/26 12:50:22;;;;;;;53.30;33.92;;;;;;;15.33;47.31;97201.13;1730298;81;21108;-81
2021/03/26 12:53:09;;;;;;;50.55;33.08;;;;;;;15.60;47.31;97196.41;1718178;81;21515;-82
2021/03/26 12:55:54;;;;;;;49.70;31.80;;;;;;;15.87;47.48;97195.08;1734923;82;21142;-82
2021/03/26 12:58:45;;;;;;;48.90;30.97;;;;;;;16.16;46.84;97188.62;1717655;81;21454;-82